Light Street, Pennsylvania
Current Conditions -  °F | °C
As of 7:15 PM on Sunday 25 Jan 2015 (Local Time) from KHZL Reporting Station
Overcast Overcast  
Wind Chill: 23°   Ceiling: 3000
Heat Index: 28°   Visibility: 10mi
Dew Point: 10°   Wind: 5mph
Humidity: 47%   Direction: 10°N
Pressure: 29.87"   Gusts: NA
Location:  41.0201°N, 76.4384°W
Report Text: KHZL 260015Z AUTO 01004KT 10SM OVC030 M02/M12 A2987 RMK AO2
Loading
Personal Weather Stations






























Interactive Weather Map New forecast layout! Learn more

10-Day Weather Forecast

Advertisements
Track Severe Weather on mobile